sensor_id;sensor_type;location;lat;lon;timestamp;pressure;altitude;pressure_sealevel;temperature;humidity
59829;BME280;45708;51.848;107.620;2022-07-23T00:04:20;93228.94;;;21.49;75.45
59829;BME280;45708;51.848;107.620;2022-07-23T00:09:20;93233.41;;;23.16;71.75
59829;BME280;45708;51.848;107.620;2022-07-23T00:14:21;93220.69;;;24.19;68.38
59829;BME280;45708;51.848;107.620;2022-07-23T00:19:22;93229.56;;;23.17;70.60
59829;BME280;45708;51.848;107.620;2022-07-23T00:24:23;93222.56;;;22.23;72.41
59829;BME280;45708;51.848;107.620;2022-07-23T00:29:24;93242.31;;;21.16;73.83
59829;BME280;45708;51.848;107.620;2022-07-23T00:34:25;93236.94;;;20.83;74.57
59829;BME280;45708;51.848;107.620;2022-07-23T00:39:26;93238.50;;;21.25;72.77
59829;BME280;45708;51.848;107.620;2022-07-23T00:44:27;93243.91;;;20.96;73.17
59829;BME280;45708;51.848;107.620;2022-07-23T00:49:30;93241.56;;;20.74;73.49
59829;BME280;45708;51.848;107.620;2022-07-23T00:54:31;93232.03;;;21.39;71.79
59829;BME280;45708;51.848;107.620;2022-07-23T00:59:31;93220.16;;;23.23;67.21
59829;BME280;45708;51.848;107.620;2022-07-23T01:04:33;93216.25;;;25.52;61.98
59829;BME280;45708;51.848;107.620;2022-07-23T01:09:34;93219.25;;;25.08;61.17
59829;BME280;45708;51.848;107.620;2022-07-23T01:14:34;93217.66;;;23.74;65.39
59829;BME280;45708;51.848;107.620;2022-07-23T01:19:35;93200.25;;;24.03;64.42
59829;BME280;45708;51.848;107.620;2022-07-23T01:24:36;93192.56;;;24.52;63.26
59829;BME280;45708;51.848;107.620;2022-07-23T01:29:37;93192.56;;;27.49;56.26
59829;BME280;45708;51.848;107.620;2022-07-23T01:34:38;93188.97;;;28.16;54.55
59829;BME280;45708;51.848;107.620;2022-07-23T01:39:39;93182.03;;;26.28;56.79
59829;BME280;45708;51.848;107.620;2022-07-23T01:44:40;93178.72;;;25.27;58.93
59829;BME280;45708;51.848;107.620;2022-07-23T01:49:40;93181.22;;;25.59;58.35
59829;BME280;45708;51.848;107.620;2022-07-23T01:54:42;93190.28;;;24.89;59.99
59829;BME280;45708;51.848;107.620;2022-07-23T01:59:42;93196.78;;;24.34;60.79
59829;BME280;45708;51.848;107.620;2022-07-23T02:04:43;93188.38;;;23.44;61.95
59829;BME280;45708;51.848;107.620;2022-07-23T02:09:44;93185.63;;;24.19;60.45
59829;BME280;45708;51.848;107.620;2022-07-23T02:14:45;93184.38;;;25.41;58.05
59829;BME280;45708;51.848;107.620;2022-07-23T02:19:46;93168.63;;;26.91;55.46
59829;BME280;45708;51.848;107.620;2022-07-23T02:24:47;93170.66;;;26.19;56.33
59829;BME280;45708;51.848;107.620;2022-07-23T02:29:47;93169.88;;;25.50;58.38
59829;BME280;45708;51.848;107.620;2022-07-23T02:34:48;93156.81;;;27.03;54.69
59829;BME280;45708;51.848;107.620;2022-07-23T02:39:49;93159.41;;;26.17;56.06
59829;BME280;45708;51.848;107.620;2022-07-23T02:44:51;93177.84;;;24.84;58.71
59829;BME280;45708;51.848;107.620;2022-07-23T02:49:52;93184.34;;;23.38;61.43
59829;BME280;45708;51.848;107.620;2022-07-23T02:54:53;93180.41;;;22.03;64.10
59829;BME280;45708;51.848;107.620;2022-07-23T02:59:53;93179.66;;;21.33;65.05
59829;BME280;45708;51.848;107.620;2022-07-23T03:04:54;93192.03;;;20.50;66.07
59829;BME280;45708;51.848;107.620;2022-07-23T03:09:55;93200.31;;;19.69;67.77
59829;BME280;45708;51.848;107.620;2022-07-23T03:14:56;93205.19;;;19.03;69.92
59829;BME280;45708;51.848;107.620;2022-07-23T03:19:57;93216.00;;;18.54;71.85
59829;BME280;45708;51.848;107.620;2022-07-23T03:24:57;93222.59;;;18.22;73.46
59829;BME280;45708;51.848;107.620;2022-07-23T03:29:59;93217.81;;;17.62;75.13
59829;BME280;45708;51.848;107.620;2022-07-23T03:35:00;93225.41;;;17.16;76.85
59829;BME280;45708;51.848;107.620;2022-07-23T03:40:01;93213.03;;;16.97;77.85
59829;BME280;45708;51.848;107.620;2022-07-23T03:45:03;93213.13;;;16.84;78.76
59829;BME280;45708;51.848;107.620;2022-07-23T03:50:04;93225.53;;;16.88;79.28
59829;BME280;45708;51.848;107.620;2022-07-23T03:55:06;93227.59;;;17.14;79.39
59829;BME280;45708;51.848;107.620;2022-07-23T04:00:08;93230.38;;;17.09;80.04
59829;BME280;45708;51.848;107.620;2022-07-23T04:05:09;93227.34;;;16.79;81.21
59829;BME280;45708;51.848;107.620;2022-07-23T04:10:10;93220.44;;;17.00;82.49
59829;BME280;45708;51.848;107.620;2022-07-23T04:15:11;93211.06;;;17.34;83.29
59829;BME280;45708;51.848;107.620;2022-07-23T04:20:12;93186.72;;;17.67;84.01
59829;BME280;45708;51.848;107.620;2022-07-23T04:25:13;93179.63;;;18.10;84.75
59829;BME280;45708;51.848;107.620;2022-07-23T04:30:13;93166.47;;;18.74;84.63
59829;BME280;45708;51.848;107.620;2022-07-23T04:35:14;93167.13;;;18.71;85.71
59829;BME280;45708;51.848;107.620;2022-07-23T04:40:15;93175.28;;;18.92;86.41
59829;BME280;45708;51.848;107.620;2022-07-23T04:45:16;93184.09;;;18.93;86.95
59829;BME280;45708;51.848;107.620;2022-07-23T04:50:17;93171.06;;;19.47;87.15
59829;BME280;45708;51.848;107.620;2022-07-23T04:55:18;93185.63;;;19.75;86.75
59829;BME280;45708;51.848;107.620;2022-07-23T05:00:20;93187.13;;;20.23;87.13
59829;BME280;45708;51.848;107.620;2022-07-23T05:05:21;93185.88;;;20.71;86.32
59829;BME280;45708;51.848;107.620;2022-07-23T05:10:21;93169.34;;;20.81;85.72
59829;BME280;45708;51.848;107.620;2022-07-23T05:15:22;93174.72;;;20.81;85.13
59829;BME280;45708;51.848;107.620;2022-07-23T05:20:24;93160.72;;;21.41;84.22
59829;BME280;45708;51.848;107.620;2022-07-23T05:25:25;93158.56;;;21.68;82.28
59829;BME280;45708;51.848;107.620;2022-07-23T05:30:25;93166.75;;;21.83;82.03
59829;BME280;45708;51.848;107.620;2022-07-23T05:35:26;93162.47;;;21.95;82.22
59829;BME280;45708;51.848;107.620;2022-07-23T05:40:27;93140.41;;;22.26;81.49
59829;BME280;45708;51.848;107.620;2022-07-23T05:45:28;93143.22;;;22.69;80.73
59829;BME280;45708;51.848;107.620;2022-07-23T05:50:29;93147.28;;;23.03;79.31
59829;BME280;45708;51.848;107.620;2022-07-23T05:55:30;93142.91;;;23.27;79.10
59829;BME280;45708;51.848;107.620;2022-07-23T06:00:31;93133.09;;;23.50;79.04
59829;BME280;45708;51.848;107.620;2022-07-23T06:05:32;93133.50;;;23.36;77.78
59829;BME280;45708;51.848;107.620;2022-07-23T06:10:33;93144.59;;;23.19;77.69
59829;BME280;45708;51.848;107.620;2022-07-23T06:15:34;93143.91;;;22.66;77.72
59829;BME280;45708;51.848;107.620;2022-07-23T06:20:35;93138.72;;;22.21;78.12
59829;BME280;45708;51.848;107.620;2022-07-23T06:25:35;93129.66;;;21.89;78.12
59829;BME280;45708;51.848;107.620;2022-07-23T06:30:36;93131.31;;;21.81;78.02
59829;BME280;45708;51.848;107.620;2022-07-23T06:35:37;93135.59;;;21.95;77.48
59829;BME280;45708;51.848;107.620;2022-07-23T06:40:38;93129.31;;;21.78;77.69
59829;BME280;45708;51.848;107.620;2022-07-23T06:45:39;93124.63;;;21.63;77.96
59829;BME280;45708;51.848;107.620;2022-07-23T06:50:40;93135.81;;;21.77;78.12
59829;BME280;45708;51.848;107.620;2022-07-23T06:55:40;93134.91;;;21.98;77.90
59829;BME280;45708;51.848;107.620;2022-07-23T07:00:41;93131.56;;;22.13;77.80
59829;BME280;45708;51.848;107.620;2022-07-23T07:05:44;93142.03;;;22.55;77.07
59829;BME280;45708;51.848;107.620;2022-07-23T07:10:45;93148.88;;;22.80;76.82
59829;BME280;45708;51.848;107.620;2022-07-23T07:15:46;93145.50;;;22.95;76.42
59829;BME280;45708;51.848;107.620;2022-07-23T07:20:48;93145.22;;;22.72;76.10
59829;BME280;45708;51.848;107.620;2022-07-23T07:25:49;93140.47;;;22.41;76.37
59829;BME280;45708;51.848;107.620;2022-07-23T07:30:53;93142.53;;;22.20;75.40
59829;BME280;45708;51.848;107.620;2022-07-23T07:35:54;93150.75;;;22.24;75.63
59829;BME280;45708;51.848;107.620;2022-07-23T07:40:55;93150.63;;;22.08;75.39
59829;BME280;45708;51.848;107.620;2022-07-23T07:45:56;93163.81;;;21.89;75.96
59829;BME280;45708;51.848;107.620;2022-07-23T07:50:57;93162.56;;;21.62;76.28
59829;BME280;45708;51.848;107.620;2022-07-23T07:55:58;93165.19;;;21.25;76.05
59829;BME280;45708;51.848;107.620;2022-07-23T08:00:59;93166.97;;;21.00;76.20
59829;BME280;45708;51.848;107.620;2022-07-23T08:06:00;93175.25;;;20.74;75.88
59829;BME280;45708;51.848;107.620;2022-07-23T08:11:00;93182.28;;;20.37;76.90
59829;BME280;45708;51.848;107.620;2022-07-23T08:16:01;93207.28;;;20.29;77.05
59829;BME280;45708;51.848;107.620;2022-07-23T08:21:03;93218.94;;;20.03;77.96
59829;BME280;45708;51.848;107.620;2022-07-23T08:26:04;93225.88;;;19.40;76.31
59829;BME280;45708;51.848;107.620;2022-07-23T08:31:05;93241.94;;;18.37;77.85
59829;BME280;45708;51.848;107.620;2022-07-23T08:36:06;93254.88;;;17.11;81.21
59829;BME280;45708;51.848;107.620;2022-07-23T08:41:07;93249.22;;;16.04;84.63
59829;BME280;45708;51.848;107.620;2022-07-23T08:46:09;93241.66;;;15.51;85.95
59829;BME280;45708;51.848;107.620;2022-07-23T08:51:10;93249.66;;;15.18;87.09
59829;BME280;45708;51.848;107.620;2022-07-23T08:56:11;93247.69;;;15.10;88.23
59829;BME280;45708;51.848;107.620;2022-07-23T09:01:11;93235.97;;;15.11;88.57
59829;BME280;45708;51.848;107.620;2022-07-23T09:06:12;93231.69;;;15.29;89.41
59829;BME280;45708;51.848;107.620;2022-07-23T09:11:16;93229.81;;;15.57;90.22
59829;BME280;45708;51.848;107.620;2022-07-23T09:21:28;93239.91;;;16.15;90.89
59829;BME280;45708;51.848;107.620;2022-07-23T09:26:34;93249.47;;;16.30;91.19
59829;BME280;45708;51.848;107.620;2022-07-23T09:31:52;93252.91;;;16.44;91.93
59829;BME280;45708;51.848;107.620;2022-07-23T09:36:58;93258.00;;;16.68;91.85
59829;BME280;45708;51.848;107.620;2022-07-23T09:42:25;93268.16;;;16.66;92.53
59829;BME280;45708;51.848;107.620;2022-07-23T09:47:30;93258.97;;;16.58;92.40
59829;BME280;45708;51.848;107.620;2022-07-23T09:52:37;93264.31;;;16.72;92.50
59829;BME280;45708;51.848;107.620;2022-07-23T09:57:43;93266.47;;;16.70;92.44
59829;BME280;45708;51.848;107.620;2022-07-23T10:02:46;93266.09;;;16.63;92.59
59829;BME280;45708;51.848;107.620;2022-07-23T10:07:48;93279.09;;;16.78;93.00
59829;BME280;45708;51.848;107.620;2022-07-23T10:12:51;93287.56;;;16.80;93.00
59829;BME280;45708;51.848;107.620;2022-07-23T10:17:52;93290.16;;;16.85;92.95
59829;BME280;45708;51.848;107.620;2022-07-23T10:23:02;93282.63;;;16.87;92.93
59829;BME280;45708;51.848;107.620;2022-07-23T10:39:32;93289.69;;;17.06;93.17
59829;BME280;45708;51.848;107.620;2022-07-23T10:44:45;93278.41;;;17.09;93.29
59829;BME280;45708;51.848;107.620;2022-07-23T10:49:46;93283.25;;;17.07;93.06
59829;BME280;45708;51.848;107.620;2022-07-23T11:00:30;93289.13;;;16.95;93.01
59829;BME280;45708;51.848;107.620;2022-07-23T11:05:41;93280.94;;;16.91;93.01
59829;BME280;45708;51.848;107.620;2022-07-23T11:10:51;93278.88;;;16.88;93.17
59829;BME280;45708;51.848;107.620;2022-07-23T11:31:54;93295.00;;;16.83;93.25
59829;BME280;45708;51.848;107.620;2022-07-23T11:36:55;93306.50;;;16.92;93.33
59829;BME280;45708;51.848;107.620;2022-07-23T11:41:57;93301.66;;;16.94;93.16
59829;BME280;45708;51.848;107.620;2022-07-23T11:47:07;93312.44;;;16.89;93.20
59829;BME280;45708;51.848;107.620;2022-07-23T11:52:15;93312.78;;;16.74;92.98
59829;BME280;45708;51.848;107.620;2022-07-23T11:57:15;93318.81;;;16.66;93.11
59829;BME280;45708;51.848;107.620;2022-07-23T12:02:16;93333.22;;;16.51;93.17
59829;BME280;45708;51.848;107.620;2022-07-23T12:07:28;93332.84;;;16.44;93.27
59829;BME280;45708;51.848;107.620;2022-07-23T12:12:45;93332.56;;;16.46;93.21
59829;BME280;45708;51.848;107.620;2022-07-23T12:17:47;93336.00;;;16.32;93.02
59829;BME280;45708;51.848;107.620;2022-07-23T12:22:50;93338.88;;;16.22;93.28
59829;BME280;45708;51.848;107.620;2022-07-23T12:28:19;93350.03;;;16.24;93.29
59829;BME280;45708;51.848;107.620;2022-07-23T12:33:28;93346.34;;;16.20;93.35
59829;BME280;45708;51.848;107.620;2022-07-23T12:38:41;93352.56;;;16.16;93.37
59829;BME280;45708;51.848;107.620;2022-07-23T12:43:45;93369.75;;;16.09;93.41
59829;BME280;45708;51.848;107.620;2022-07-23T12:48:51;93366.41;;;16.04;93.35
59829;BME280;45708;51.848;107.620;2022-07-23T12:53:55;93374.97;;;16.15;93.25
59829;BME280;45708;51.848;107.620;2022-07-23T12:58:57;93362.34;;;16.06;93.15
59829;BME280;45708;51.848;107.620;2022-07-23T13:04:01;93395.88;;;16.21;93.44
59829;BME280;45708;51.848;107.620;2022-07-23T13:09:06;93394.63;;;16.32;93.44
59829;BME280;45708;51.848;107.620;2022-07-23T13:14:07;93395.41;;;16.33;93.33
59829;BME280;45708;51.848;107.620;2022-07-23T13:19:08;93403.31;;;16.24;93.21
59829;BME280;45708;51.848;107.620;2022-07-23T13:24:10;93398.44;;;15.99;93.22
59829;BME280;45708;51.848;107.620;2022-07-23T13:29:10;93392.84;;;15.81;93.13
59829;BME280;45708;51.848;107.620;2022-07-23T13:34:12;93397.72;;;15.61;93.06
59829;BME280;45708;51.848;107.620;2022-07-23T13:39:12;93405.84;;;15.50;93.37
59829;BME280;45708;51.848;107.620;2022-07-23T13:44:13;93403.22;;;15.32;93.34
59829;BME280;45708;51.848;107.620;2022-07-23T13:49:14;93399.19;;;15.15;93.63
59829;BME280;45708;51.848;107.620;2022-07-23T13:54:15;93400.13;;;15.06;94.01
59829;BME280;45708;51.848;107.620;2022-07-23T13:59:16;93413.63;;;14.90;94.25
59829;BME280;45708;51.848;107.620;2022-07-23T14:04:16;93413.53;;;14.77;94.24
59829;BME280;45708;51.848;107.620;2022-07-23T14:09:17;93414.53;;;14.81;94.36
59829;BME280;45708;51.848;107.620;2022-07-23T14:14:18;93420.44;;;14.78;94.22
59829;BME280;45708;51.848;107.620;2022-07-23T14:19:19;93416.16;;;14.82;94.80
59829;BME280;45708;51.848;107.620;2022-07-23T14:24:20;93419.31;;;14.84;94.83
59829;BME280;45708;51.848;107.620;2022-07-23T14:29:21;93408.69;;;14.84;94.73
59829;BME280;45708;51.848;107.620;2022-07-23T14:34:22;93421.91;;;14.89;94.61
59829;BME280;45708;51.848;107.620;2022-07-23T14:39:23;93407.59;;;14.85;94.97
59829;BME280;45708;51.848;107.620;2022-07-23T14:44:24;93412.63;;;14.86;94.85
59829;BME280;45708;51.848;107.620;2022-07-23T14:49:25;93414.41;;;14.91;95.09
59829;BME280;45708;51.848;107.620;2022-07-23T14:54:27;93410.91;;;14.96;95.20
59829;BME280;45708;51.848;107.620;2022-07-23T14:59:28;93411.69;;;14.96;95.48
59829;BME280;45708;51.848;107.620;2022-07-23T15:04:29;93401.72;;;15.07;95.17
59829;BME280;45708;51.848;107.620;2022-07-23T15:09:30;93394.03;;;15.05;95.71
59829;BME280;45708;51.848;107.620;2022-07-23T15:14:31;93396.75;;;15.00;95.45
59829;BME280;45708;51.848;107.620;2022-07-23T15:19:32;93396.31;;;14.93;95.50
59829;BME280;45708;51.848;107.620;2022-07-23T15:24:33;93390.28;;;15.06;95.70
59829;BME280;45708;51.848;107.620;2022-07-23T15:29:34;93391.38;;;15.05;95.53
59829;BME280;45708;51.848;107.620;2022-07-23T15:34:35;93377.78;;;15.07;95.83
59829;BME280;45708;51.848;107.620;2022-07-23T15:39:36;93385.25;;;15.05;95.41
59829;BME280;45708;51.848;107.620;2022-07-23T15:44:36;93392.56;;;14.94;95.87
59829;BME280;45708;51.848;107.620;2022-07-23T15:49:37;93396.53;;;14.97;95.94
59829;BME280;45708;51.848;107.620;2022-07-23T15:54:38;93394.03;;;15.05;95.70
59829;BME280;45708;51.848;107.620;2022-07-23T15:59:40;93388.13;;;15.08;95.83
59829;BME280;45708;51.848;107.620;2022-07-23T16:04:40;93393.38;;;15.13;95.80
59829;BME280;45708;51.848;107.620;2022-07-23T16:09:41;93397.09;;;15.12;95.94
59829;BME280;45708;51.848;107.620;2022-07-23T16:14:42;93390.28;;;15.06;95.88
59829;BME280;45708;51.848;107.620;2022-07-23T16:19:43;93405.16;;;15.07;96.17
59829;BME280;45708;51.848;107.620;2022-07-23T16:24:44;93418.88;;;15.14;95.97
59829;BME280;45708;51.848;107.620;2022-07-23T16:29:45;93416.16;;;15.19;96.00
59829;BME280;45708;51.848;107.620;2022-07-23T16:34:45;93417.72;;;15.20;96.09
59829;BME280;45708;51.848;107.620;2022-07-23T16:39:46;93431.56;;;15.23;96.16
59829;BME280;45708;51.848;107.620;2022-07-23T16:44:47;93450.19;;;15.23;95.91
59829;BME280;45708;51.848;107.620;2022-07-23T16:49:48;93432.69;;;15.16;95.89
59829;BME280;45708;51.848;107.620;2022-07-23T16:54:49;93451.97;;;15.08;96.12
59829;BME280;45708;51.848;107.620;2022-07-23T16:59:50;93447.34;;;14.95;95.96
59829;BME280;45708;51.848;107.620;2022-07-23T17:04:51;93460.50;;;15.05;95.79
59829;BME280;45708;51.848;107.620;2022-07-23T17:09:51;93463.03;;;15.15;96.23
59829;BME280;45708;51.848;107.620;2022-07-23T17:14:52;93465.59;;;15.20;95.90
59829;BME280;45708;51.848;107.620;2022-07-23T17:19:53;93468.00;;;15.22;95.93
59829;BME280;45708;51.848;107.620;2022-07-23T17:24:54;93470.50;;;15.13;96.02
59829;BME280;45708;51.848;107.620;2022-07-23T17:29:55;93482.72;;;15.14;95.90
59829;BME280;45708;51.848;107.620;2022-07-23T17:34:56;93481.22;;;15.08;96.37
59829;BME280;45708;51.848;107.620;2022-07-23T17:39:56;93478.91;;;15.02;95.91
59829;BME280;45708;51.848;107.620;2022-07-23T17:44:57;93482.63;;;15.01;96.22
59829;BME280;45708;51.848;107.620;2022-07-23T17:49:58;93474.94;;;14.99;95.86
59829;BME280;45708;51.848;107.620;2022-07-23T17:54:59;93486.22;;;14.91;95.85
59829;BME280;45708;51.848;107.620;2022-07-23T18:00:00;93481.97;;;14.90;96.05
59829;BME280;45708;51.848;107.620;2022-07-23T18:05:01;93494.81;;;14.83;95.90
59829;BME280;45708;51.848;107.620;2022-07-23T18:10:02;93482.53;;;14.87;95.97
59829;BME280;45708;51.848;107.620;2022-07-23T18:15:04;93482.81;;;14.85;96.30
59829;BME280;45708;51.848;107.620;2022-07-23T18:20:07;93487.84;;;14.87;96.47
59829;BME280;45708;51.848;107.620;2022-07-23T18:25:09;93496.34;;;14.89;96.36
59829;BME280;45708;51.848;107.620;2022-07-23T18:30:11;93498.50;;;14.87;96.18
59829;BME280;45708;51.848;107.620;2022-07-23T18:35:12;93506.53;;;14.82;96.03
59829;BME280;45708;51.848;107.620;2022-07-23T18:40:13;93506.28;;;14.78;96.01
59829;BME280;45708;51.848;107.620;2022-07-23T18:45:14;93509.00;;;14.73;96.38
59829;BME280;45708;51.848;107.620;2022-07-23T18:50:15;93519.97;;;14.67;96.49
59829;BME280;45708;51.848;107.620;2022-07-23T18:55:16;93510.94;;;14.68;96.17
59829;BME280;45708;51.848;107.620;2022-07-23T19:00:17;93516.25;;;14.68;96.40
59829;BME280;45708;51.848;107.620;2022-07-23T19:05:18;93512.03;;;14.61;96.55
59829;BME280;45708;51.848;107.620;2022-07-23T19:10:19;93518.50;;;14.55;96.40
59829;BME280;45708;51.848;107.620;2022-07-23T19:15:21;93512.72;;;14.48;96.20
59829;BME280;45708;51.848;107.620;2022-07-23T19:20:21;93510.63;;;14.40;96.24
59829;BME280;45708;51.848;107.620;2022-07-23T19:25:22;93495.03;;;14.34;96.35
59829;BME280;45708;51.848;107.620;2022-07-23T19:30:23;93507.81;;;14.31;96.21
59829;BME280;45708;51.848;107.620;2022-07-23T19:35:24;93512.84;;;14.33;96.47
59829;BME280;45708;51.848;107.620;2022-07-23T19:40:25;93518.44;;;14.31;96.73
59829;BME280;45708;51.848;107.620;2022-07-23T19:45:26;93531.38;;;14.38;96.09
59829;BME280;45708;51.848;107.620;2022-07-23T19:50:27;93525.59;;;14.31;96.32
59829;BME280;45708;51.848;107.620;2022-07-23T19:55:28;93535.22;;;14.27;96.44
59829;BME280;45708;51.848;107.620;2022-07-23T20:00:29;93542.22;;;14.13;96.37
59829;BME280;45708;51.848;107.620;2022-07-23T20:05:30;93531.75;;;13.92;96.00
59829;BME280;45708;51.848;107.620;2022-07-23T20:10:31;93525.19;;;13.85;96.00
59829;BME280;45708;51.848;107.620;2022-07-23T20:15:32;93525.50;;;13.78;95.71
59829;BME280;45708;51.848;107.620;2022-07-23T20:20:33;93518.91;;;13.70;95.79
59829;BME280;45708;51.848;107.620;2022-07-23T20:25:33;93527.72;;;13.66;96.03
59829;BME280;45708;51.848;107.620;2022-07-23T20:30:34;93529.06;;;13.63;95.70
59829;BME280;45708;51.848;107.620;2022-07-23T20:35:35;93517.13;;;13.61;95.73
59829;BME280;45708;51.848;107.620;2022-07-23T20:40:36;93517.66;;;13.58;95.66
59829;BME280;45708;51.848;107.620;2022-07-23T20:45:37;93514.00;;;13.54;95.93
59829;BME280;45708;51.848;107.620;2022-07-23T20:50:39;93512.41;;;13.53;96.05
59829;BME280;45708;51.848;107.620;2022-07-23T20:55:40;93510.31;;;13.50;95.94
59829;BME280;45708;51.848;107.620;2022-07-23T21:00:40;93511.66;;;13.47;95.80
59829;BME280;45708;51.848;107.620;2022-07-23T21:05:41;93503.19;;;13.40;95.78
59829;BME280;45708;51.848;107.620;2022-07-23T21:10:42;93514.59;;;13.40;95.70
59829;BME280;45708;51.848;107.620;2022-07-23T21:15:43;93513.56;;;13.36;95.90
59829;BME280;45708;51.848;107.620;2022-07-23T21:20:44;93507.22;;;13.32;95.86
59829;BME280;45708;51.848;107.620;2022-07-23T21:25:45;93510.94;;;13.31;95.86
59829;BME280;45708;51.848;107.620;2022-07-23T21:30:46;93526.53;;;13.38;95.97
59829;BME280;45708;51.848;107.620;2022-07-23T21:35:47;93530.22;;;13.47;96.00
59829;BME280;45708;51.848;107.620;2022-07-23T21:40:48;93542.69;;;13.47;96.31
59829;BME280;45708;51.848;107.620;2022-07-23T21:45:52;93546.00;;;13.13;96.04
59829;BME280;45708;51.848;107.620;2022-07-23T21:50:52;93569.88;;;13.08;96.05
59829;BME280;45708;51.848;107.620;2022-07-23T21:55:53;93572.56;;;13.03;96.11
59829;BME280;45708;51.848;107.620;2022-07-23T22:00:56;93577.59;;;12.99;95.94
59829;BME280;45708;51.848;107.620;2022-07-23T22:05:57;93586.84;;;13.12;95.80
59829;BME280;45708;51.848;107.620;2022-07-23T22:10:58;93590.06;;;13.04;96.45
59829;BME280;45708;51.848;107.620;2022-07-23T22:16:00;93586.34;;;13.05;96.34
59829;BME280;45708;51.848;107.620;2022-07-23T22:21:00;93584.44;;;13.10;96.36
59829;BME280;45708;51.848;107.620;2022-07-23T22:26:01;93570.94;;;13.22;96.64
59829;BME280;45708;51.848;107.620;2022-07-23T22:31:02;93574.03;;;13.34;96.52
59829;BME280;45708;51.848;107.620;2022-07-23T22:36:04;93561.97;;;13.57;96.56
59829;BME280;45708;51.848;107.620;2022-07-23T22:41:04;93563.06;;;13.95;96.88
59829;BME280;45708;51.848;107.620;2022-07-23T22:46:05;93578.88;;;14.11;97.07
59829;BME280;45708;51.848;107.620;2022-07-23T22:51:06;93583.59;;;14.19;97.12
59829;BME280;45708;51.848;107.620;2022-07-23T22:56:07;93593.75;;;14.12;97.02
59829;BME280;45708;51.848;107.620;2022-07-23T23:01:08;93597.44;;;14.16;97.05
59829;BME280;45708;51.848;107.620;2022-07-23T23:06:09;93608.63;;;14.13;96.59
59829;BME280;45708;51.848;107.620;2022-07-23T23:11:09;93612.63;;;14.10;96.66
59829;BME280;45708;51.848;107.620;2022-07-23T23:16:10;93615.66;;;13.93;96.81
59829;BME280;45708;51.848;107.620;2022-07-23T23:21:11;93623.59;;;13.93;96.18
59829;BME280;45708;51.848;107.620;2022-07-23T23:26:13;93627.28;;;14.03;96.35
59829;BME280;45708;51.848;107.620;2022-07-23T23:31:14;93616.03;;;14.16;96.30
59829;BME280;45708;51.848;107.620;2022-07-23T23:36:15;93613.88;;;14.23;96.51
59829;BME280;45708;51.848;107.620;2022-07-23T23:41:15;93626.59;;;14.26;96.58
59829;BME280;45708;51.848;107.620;2022-07-23T23:46:16;93639.81;;;14.31;96.43
59829;BME280;45708;51.848;107.620;2022-07-23T23:51:17;93631.50;;;14.43;96.39
59829;BME280;45708;51.848;107.620;2022-07-23T23:56:18;93636.81;;;14.43;96.30
